Time;durP1;ratioP1;P1;durP2;ratioP2;P2;SDS_P1;SDS_P2;PMS_P1;PMS_P2;Temp;Humidity;BMP_temperature;BMP_pressure;BME280_temperature;BME280_humidity;BME280_pressure;Samples;Min_cycle;Max_cycle;Signal;HPM_P1;HPM_P2
2022/05/17 00:00:24;;;;;;;24.42;19.02;;;;;;;13.17;100.00;99207.22;2033984;29;20747;-70
2022/05/17 00:01:26;;;;;;;20.57;18.57;;;;;;;13.17;100.00;99201.84;2025605;29;20685;-70
2022/05/17 00:02:27;;;;;;;22.98;18.88;;;;;;;13.14;100.00;99202.47;2026277;29;20200;-70
2022/05/17 00:03:29;;;;;;;20.40;18.30;;;;;;;13.13;100.00;99203.59;2034772;29;20643;-70
2022/05/17 00:04:29;;;;;;;20.23;18.48;;;;;;;13.11;100.00;99195.81;2025404;29;20212;-70
2022/05/17 00:05:32;;;;;;;20.63;18.47;;;;;;;13.10;100.00;99196.13;2026285;29;20188;-70
2022/05/17 00:06:34;;;;;;;21.55;19.25;;;;;;;13.09;100.00;99194.56;2034199;29;20223;-70
2022/05/17 00:07:36;;;;;;;20.33;18.40;;;;;;;13.07;100.00;99199.44;2026022;29;20208;-69
2022/05/17 00:08:38;;;;;;;20.80;18.40;;;;;;;13.04;100.00;99192.84;2018378;29;20568;-70
2022/05/17 00:09:42;;;;;;;20.52;18.75;;;;;;;13.02;100.00;99195.00;2018454;29;20212;-70
2022/05/17 00:10:46;;;;;;;21.08;18.83;;;;;;;13.02;100.00;99187.75;2026545;29;20200;-70
2022/05/17 00:11:48;;;;;;;20.33;18.33;;;;;;;13.03;100.00;99196.59;2034593;29;20196;-70
2022/05/17 00:12:50;;;;;;;21.25;18.98;;;;;;;13.01;100.00;99194.22;2034622;29;20219;-70
2022/05/17 00:13:52;;;;;;;22.90;18.67;;;;;;;13.00;100.00;99197.22;2034665;29;20196;-70
2022/05/17 00:14:54;;;;;;;20.88;18.75;;;;;;;12.99;100.00;99196.41;2034482;29;20671;-70
2022/05/17 00:15:56;;;;;;;21.52;19.60;;;;;;;12.99;100.00;99196.41;2025348;29;20215;-70
2022/05/17 00:16:57;;;;;;;20.73;18.83;;;;;;;12.95;100.00;99190.09;2026066;29;20216;-69
2022/05/17 00:18:02;;;;;;;20.70;18.85;;;;;;;12.97;100.00;99195.94;2033800;29;20612;-70
2022/05/17 00:19:05;;;;;;;20.65;18.65;;;;;;;12.97;100.00;99193.25;2025393;29;20204;-71
2022/05/17 00:20:08;;;;;;;20.73;18.83;;;;;;;12.98;100.00;99194.06;2026509;29;20257;-70
2022/05/17 00:21:09;;;;;;;19.75;18.05;;;;;;;12.97;100.00;99195.16;2033925;29;20259;-70
2022/05/17 00:22:11;;;;;;;20.63;18.53;;;;;;;12.97;100.00;99193.25;2034592;29;20182;-70
2022/05/17 00:23:14;;;;;;;20.77;18.38;;;;;;;12.97;100.00;99190.59;2025619;29;20238;-70
2022/05/17 00:24:16;;;;;;;21.88;17.90;;;;;;;12.97;100.00;99190.59;2026160;29;20200;-69
2022/05/17 00:25:19;;;;;;;20.75;18.50;;;;;;;12.98;100.00;99194.06;2034100;29;20195;-68
2022/05/17 00:26:21;;;;;;;19.95;17.92;;;;;;;12.96;100.00;99191.69;2034399;29;20207;-70
2022/05/17 00:27:24;;;;;;;19.63;17.60;;;;;;;12.96;100.00;99193.56;2034382;29;20250;-70
2022/05/17 00:28:27;;;;;;;20.67;18.50;;;;;;;12.92;100.00;99188.03;2033436;29;20215;-69
2022/05/17 00:29:28;;;;;;;20.27;18.27;;;;;;;12.91;100.00;99186.44;2025877;29;20236;-70
2022/05/17 00:30:32;;;;;;;21.00;18.87;;;;;;;12.90;100.00;99189.44;2018187;29;20291;-70
2022/05/17 00:31:33;;;;;;;20.77;18.75;;;;;;;12.90;100.00;99186.75;2026275;29;20734;-70
2022/05/17 00:32:35;;;;;;;19.52;17.73;;;;;;;12.90;100.00;99187.56;2034384;29;20194;-69
2022/05/17 00:33:37;;;;;;;19.83;18.13;;;;;;;12.90;100.00;99187.56;2033675;29;20577;-69
2022/05/17 00:34:40;;;;;;;21.48;17.50;;;;;;;12.89;100.00;99183.31;2033533;29;20281;-69
2022/05/17 00:35:43;;;;;;;20.08;18.33;;;;;;;12.90;100.00;99190.22;2033533;29;20211;-69
2022/05/17 00:36:45;;;;;;;20.35;18.20;;;;;;;12.89;100.00;99185.97;2033416;29;20223;-71
2022/05/17 00:37:46;;;;;;;20.02;18.13;;;;;;;12.95;100.00;99183.97;2034357;29;20753;-70
2022/05/17 00:38:48;;;;;;;19.23;17.63;;;;;;;12.95;100.00;99179.41;2033626;29;20740;-70
2022/05/17 00:39:48;;;;;;;19.38;17.77;;;;;;;12.94;100.00;99183.19;2033617;29;20204;-70
2022/05/17 00:40:51;;;;;;;19.77;17.93;;;;;;;12.95;100.00;99176.72;2033731;29;20278;-70
2022/05/17 00:41:53;;;;;;;19.65;17.70;;;;;;;12.93;100.00;99181.56;2034306;29;20200;-70
2022/05/17 00:42:54;;;;;;;19.23;17.53;;;;;;;12.92;100.00;99179.22;2025785;29;20307;-70
2022/05/17 00:45:20;;;;;;;19.77;17.85;;;;;;;12.88;100.00;99179.03;2034531;29;20586;-70
2022/05/17 00:46:27;;;;;;;19.60;17.70;;;;;;;12.89;100.00;99180.63;2034287;29;20562;-70
2022/05/17 00:47:32;;;;;;;19.20;17.60;;;;;;;12.87;100.00;99172.13;2034286;29;20267;-70
2022/05/17 00:48:33;;;;;;;19.15;17.50;;;;;;;12.86;100.00;99173.22;2034288;29;20656;-70
2022/05/17 00:49:39;;;;;;;19.67;18.00;;;;;;;12.86;100.00;99170.53;2025821;29;20546;-70
2022/05/17 00:50:43;;;;;;;20.48;18.33;;;;;;;12.87;100.00;99168.66;2025503;29;21002;-70
2022/05/17 00:51:45;;;;;;;18.92;17.30;;;;;;;12.86;100.00;99169.75;2033375;29;20279;-70
2022/05/17 00:52:47;;;;;;;19.05;17.48;;;;;;;12.86;100.00;99164.41;2034449;29;20200;-70
2022/05/17 00:53:50;;;;;;;20.00;18.20;;;;;;;12.85;100.00;99160.09;2034428;29;20288;-70
2022/05/17 00:54:55;;;;;;;19.05;17.08;;;;;;;12.84;100.00;99162.00;2034241;29;20192;-70
2022/05/17 00:55:59;;;;;;;19.20;17.38;;;;;;;12.84;100.00;99162.00;2034225;29;20271;-70
2022/05/17 00:57:04;;;;;;;20.65;18.17;;;;;;;12.86;100.00;99173.22;2025401;29;20315;-70
2022/05/17 00:58:11;;;;;;;19.90;18.20;;;;;;;12.86;100.00;99165.19;2026670;29;20189;-70
2022/05/17 00:59:12;;;;;;;21.17;18.55;;;;;;;12.86;100.00;99164.41;2034448;29;20204;-69
2022/05/17 01:00:17;;;;;;;19.30;17.70;;;;;;;12.87;100.00;99165.97;2033576;29;20202;-69
2022/05/17 01:01:20;;;;;;;18.73;17.13;;;;;;;12.86;100.00;99161.72;2033470;29;20223;-70
2022/05/17 01:02:28;;;;;;;19.00;17.10;;;;;;;12.85;100.00;99163.56;2033762;29;20568;-70
2022/05/17 01:03:30;;;;;;;17.98;16.77;;;;;;;12.87;100.00;99161.41;2033513;29;20709;-70
2022/05/17 01:04:32;;;;;;;18.38;16.58;;;;;;;12.89;100.00;99159.19;2033448;29;20206;-70
2022/05/17 01:05:39;;;;;;;18.63;16.98;;;;;;;12.92;100.00;99160.47;2026125;29;20216;-70
2022/05/17 01:06:45;;;;;;;18.73;17.00;;;;;;;12.87;100.00;99152.59;2026263;29;20228;-69
2022/05/17 01:07:53;;;;;;;19.08;17.17;;;;;;;12.89;100.00;99153.84;2034171;29;20180;-70
2022/05/17 01:08:55;;;;;;;18.52;16.77;;;;;;;12.86;100.00;99165.19;2034169;29;20523;-70
2022/05/17 01:09:58;;;;;;;18.75;17.05;;;;;;;12.84;100.00;99153.97;2034181;29;20243;-70
2022/05/17 01:10:58;;;;;;;19.02;17.48;;;;;;;12.84;100.00;99150.50;2033440;29;20207;-69
2022/05/17 01:12:01;;;;;;;19.40;17.47;;;;;;;12.84;100.00;99158.53;2033492;29;20247;-70
2022/05/17 01:15:41;;;;;;;18.83;17.23;;;;;;;12.80;100.00;99163.72;2033860;29;20212;-69
2022/05/17 01:16:42;;;;;;;19.30;17.50;;;;;;;12.78;100.00;99163.25;2033387;29;20219;-70
2022/05/17 01:17:44;;;;;;;18.42;16.83;;;;;;;12.80;100.00;99162.94;2033600;29;20589;-70
2022/05/17 01:18:46;;;;;;;18.50;16.98;;;;;;;12.78;100.00;99163.25;2033416;29;20287;-69
2022/05/17 01:19:47;;;;;;;19.33;16.98;;;;;;;12.77;100.00;99167.03;2033758;29;20223;-70
2022/05/17 01:20:49;;;;;;;18.30;16.88;;;;;;;12.79;100.00;99164.81;2034302;29;20192;-69
2022/05/17 01:21:51;;;;;;;18.38;16.77;;;;;;;12.78;100.00;99151.75;2033603;29;20223;-70
2022/05/17 01:22:53;;;;;;;18.30;16.80;;;;;;;12.80;100.00;99157.59;2034082;29;20730;-69
2022/05/17 01:23:55;;;;;;;18.77;17.10;;;;;;;12.75;100.00;99155.81;2034110;29;20219;-69
2022/05/17 01:25:00;;;;;;;19.10;17.38;;;;;;;12.76;100.00;99154.72;2033387;29;20293;-70
2022/05/17 01:26:04;;;;;;;19.17;17.27;;;;;;;12.72;100.00;99140.38;2025604;29;20235;-70
2022/05/17 01:27:10;;;;;;;19.05;17.27;;;;;;;12.73;100.00;99147.31;2026144;29;20679;-70
2022/05/17 01:28:14;;;;;;;18.77;17.02;;;;;;;12.74;100.00;99152.34;2034284;29;20524;-70
2022/05/17 01:29:16;;;;;;;20.48;17.52;;;;;;;12.74;100.00;99148.88;2034000;29;20232;-70
2022/05/17 01:30:21;;;;;;;18.40;16.90;;;;;;;12.72;100.00;99145.72;2032942;29;20234;-70
2022/05/17 01:31:21;;;;;;;18.30;16.95;;;;;;;12.73;100.00;99155.34;2033520;29;20199;-70
2022/05/17 01:32:26;;;;;;;17.47;16.27;;;;;;;12.72;100.00;99149.19;2033390;29;20294;-70
2022/05/17 01:33:28;;;;;;;18.95;17.27;;;;;;;12.71;100.00;99152.19;2025615;29;20754;-69
2022/05/17 01:34:30;;;;;;;19.77;17.50;;;;;;;12.69;100.00;99149.81;2025796;29;20688;-69
2022/05/17 01:35:31;;;;;;;18.65;17.20;;;;;;;12.68;100.00;99156.28;2034045;29;20195;-69
2022/05/17 01:36:34;;;;;;;18.65;17.15;;;;;;;12.69;100.00;99160.53;2033563;29;20227;-69
2022/05/17 01:37:40;;;;;;;20.35;18.60;;;;;;;12.65;100.00;99148.84;2034043;29;20199;-69
2022/05/17 01:38:45;;;;;;;17.98;16.67;;;;;;;12.67;100.00;99151.19;2033286;29;20212;-70
2022/05/17 01:39:47;;;;;;;19.00;17.38;;;;;;;12.65;100.00;99148.06;2033522;29;20192;-69
2022/05/17 01:40:48;;;;;;;19.52;17.88;;;;;;;12.64;100.00;99151.81;2034022;29;20247;-69
2022/05/17 01:41:50;;;;;;;19.13;17.73;;;;;;;12.63;100.00;99144.91;2024918;29;20260;-70
2022/05/17 01:42:50;;;;;;;20.35;18.42;;;;;;;12.63;100.00;99145.69;2025616;29;20204;-69
2022/05/17 01:43:53;;;;;;;18.77;17.00;;;;;;;12.65;100.00;99148.06;2025539;29;20265;-70
2022/05/17 01:44:54;;;;;;;18.52;16.77;;;;;;;12.64;100.00;99146.47;2025827;29;20200;-69
2022/05/17 01:45:56;;;;;;;19.43;17.53;;;;;;;12.63;100.00;99144.91;2034137;29;20195;-69
2022/05/17 01:46:57;;;;;;;19.58;17.83;;;;;;;12.64;100.00;99146.47;2025517;29;20223;-69
2022/05/17 01:47:59;;;;;;;19.63;18.02;;;;;;;12.67;100.00;99151.19;2025508;29;20207;-70
2022/05/17 01:49:00;;;;;;;20.95;18.83;;;;;;;12.72;100.00;99143.84;2033450;29;20682;-69
2022/05/17 01:50:01;;;;;;;20.63;18.90;;;;;;;12.71;100.00;99141.47;2033271;29;20656;-70
2022/05/17 01:51:05;;;;;;;22.85;19.42;;;;;;;12.68;100.00;99140.22;2024630;29;20565;-69
2022/05/17 01:52:08;;;;;;;20.90;18.40;;;;;;;12.70;100.00;99137.22;2026146;29;20172;-69
2022/05/17 01:53:11;;;;;;;20.88;18.75;;;;;;;12.69;100.00;99135.66;2033960;29;20563;-69
2022/05/17 01:54:14;;;;;;;21.30;19.40;;;;;;;12.70;100.00;99132.66;2033989;29;20192;-69
2022/05/17 01:55:14;;;;;;;20.40;18.80;;;;;;;12.71;100.00;99138.81;2034181;29;20203;-69
2022/05/17 01:56:16;;;;;;;20.37;18.70;;;;;;;12.70;100.00;99135.34;2033996;29;20184;-69
2022/05/17 01:57:17;;;;;;;19.38;17.77;;;;;;;12.69;100.00;99133.75;2025117;29;20235;-69
2022/05/17 01:58:24;;;;;;;19.33;17.43;;;;;;;12.69;100.00;99127.63;2025703;29;20279;-69
2022/05/17 01:59:26;;;;;;;20.33;18.40;;;;;;;12.67;100.00;99127.13;2025179;29;20212;-69
2022/05/17 02:00:28;;;;;;;20.20;18.43;;;;;;;12.65;100.00;99137.34;2025710;29;20755;-69
2022/05/17 02:01:29;;;;;;;19.27;17.75;;;;;;;12.60;100.00;99130.25;2033912;29;20279;-69
2022/05/17 02:02:31;;;;;;;18.90;17.37;;;;;;;12.56;100.00;99134.63;2033960;29;20192;-69
2022/05/17 02:03:31;;;;;;;18.67;17.15;;;;;;;12.54;100.00;99131.47;2034121;29;20196;-69
2022/05/17 02:04:34;;;;;;;19.00;17.10;;;;;;;12.53;100.00;99131.78;2033948;29;20212;-70
2022/05/17 02:05:35;;;;;;;18.40;16.70;;;;;;;12.49;100.00;99133.47;2034176;29;20589;-70
2022/05/17 02:06:37;;;;;;;19.50;17.70;;;;;;;12.48;100.00;99142.59;2033636;29;20224;-69
2022/05/17 02:07:38;;;;;;;20.00;18.15;;;;;;;12.45;100.00;99139.44;2033923;29;20203;-69
2022/05/17 02:08:41;;;;;;;19.83;17.98;;;;;;;12.44;100.00;99137.88;2034020;29;20238;-69
2022/05/17 02:09:43;;;;;;;19.30;17.80;;;;;;;12.44;100.00;99142.44;2035432;29;20255;-69
2022/05/17 02:10:43;;;;;;;19.58;17.65;;;;;;;12.39;100.00;99140.66;2035690;29;20188;-69
2022/05/17 02:11:45;;;;;;;18.53;17.00;;;;;;;12.39;100.00;99140.66;2035401;29;20195;-69
2022/05/17 02:12:48;;;;;;;19.65;16.98;;;;;;;12.36;100.00;99143.97;2035482;29;20198;-69
2022/05/17 02:13:52;;;;;;;18.83;17.30;;;;;;;12.35;100.00;99139.72;2026993;29;20193;-69
2022/05/17 02:14:55;;;;;;;18.45;16.75;;;;;;;12.32;100.00;99134.94;2027542;29;20200;-69
2022/05/17 02:15:57;;;;;;;18.80;17.23;;;;;;;12.27;100.00;99137.75;2035440;29;20282;-70
2022/05/17 02:17:00;;;;;;;18.60;16.55;;;;;;;12.27;100.00;99137.75;2035524;29;20196;-69
2022/05/17 02:18:01;;;;;;;18.42;16.70;;;;;;;12.23;100.00;99136.78;2034875;29;20207;-69
2022/05/17 02:19:04;;;;;;;19.50;16.90;;;;;;;12.22;100.00;99135.19;2034894;29;20631;-70
2022/05/17 02:20:07;;;;;;;18.85;17.15;;;;;;;12.20;100.00;99140.06;2035320;29;20192;-70
2022/05/17 02:21:09;;;;;;;18.73;17.20;;;;;;;12.18;100.00;99136.13;2034896;29;20191;-69
2022/05/17 02:22:11;;;;;;;24.17;18.27;;;;;;;12.15;100.00;99126.81;2035391;29;20619;-69
2022/05/17 02:23:15;;;;;;;19.70;17.73;;;;;;;12.12;100.00;99136.22;2035387;29;20606;-69
2022/05/17 02:24:17;;;;;;;22.48;18.65;;;;;;;12.09;100.00;99130.72;2034675;29;20195;-69
2022/05/17 02:25:19;;;;;;;19.52;17.58;;;;;;;12.10;100.00;99137.66;2034763;29;20696;-69
2022/05/17 02:26:22;;;;;;;19.45;17.65;;;;;;;12.08;100.00;99139.84;2035459;29;20305;-69
2022/05/17 02:27:23;;;;;;;19.13;17.40;;;;;;;12.07;100.00;99132.88;2035532;29;20195;-69
2022/05/17 02:28:26;;;;;;;20.17;18.25;;;;;;;12.04;100.00;99126.25;2035287;29;20562;-70
2022/05/17 02:29:30;;;;;;;20.38;18.33;;;;;;;12.05;100.00;99124.38;2035208;29;20222;-69
2022/05/17 02:30:32;;;;;;;20.40;18.65;;;;;;;11.99;100.00;99120.22;2035266;29;20191;-69
2022/05/17 02:31:33;;;;;;;19.42;17.65;;;;;;;11.95;100.00;99124.63;2034620;29;20200;-70
2022/05/17 02:32:35;;;;;;;19.33;17.83;;;;;;;11.94;100.00;99123.03;2034695;29;20201;-69
2022/05/17 02:33:37;;;;;;;20.48;18.48;;;;;;;11.91;100.00;99124.44;2026788;29;20200;-69
2022/05/17 02:34:41;;;;;;;20.20;18.30;;;;;;;11.91;100.00;99123.66;2026957;29;20260;-69
2022/05/17 02:35:43;;;;;;;20.23;18.42;;;;;;;11.85;100.00;99118.41;2035254;29;20195;-69
2022/05/17 02:36:45;;;;;;;19.95;18.00;;;;;;;11.86;100.00;99120.00;2034949;29;20230;-69
2022/05/17 02:37:45;;;;;;;20.42;18.70;;;;;;;11.91;100.00;99118.31;2035170;29;20211;-69
2022/05/17 02:38:47;;;;;;;20.37;18.57;;;;;;;11.79;100.00;99116.91;2035332;29;20243;-69
2022/05/17 02:39:51;;;;;;;20.13;18.40;;;;;;;11.78;100.00;99119.91;2026155;29;20639;-69
2022/05/17 02:40:54;;;;;;;19.40;17.88;;;;;;;11.76;100.00;99114.06;2027337;29;20559;-69
2022/05/17 02:41:56;;;;;;;19.25;17.25;;;;;;;11.78;100.00;99110.00;2026179;29;20216;-69
2022/05/17 02:42:59;;;;;;;20.27;18.58;;;;;;;11.79;100.00;99108.91;2027141;29;20672;-69
2022/05/17 02:44:00;;;;;;;19.35;17.70;;;;;;;11.78;100.00;99110.00;2026710;29;20231;-69
2022/05/17 02:45:02;;;;;;;21.30;19.30;;;;;;;11.79;100.00;99111.56;2026728;29;20204;-69
2022/05/17 02:46:04;;;;;;;19.92;18.25;;;;;;;11.85;100.00;99118.41;2034700;29;20195;-69
2022/05/17 02:47:07;;;;;;;19.73;17.85;;;;;;;11.92;100.00;99118.00;2035158;29;20199;-69
2022/05/17 02:48:09;;;;;;;19.42;17.83;;;;;;;11.97;100.00;99125.09;2035145;29;20207;-69
2022/05/17 02:49:10;;;;;;;19.30;17.50;;;;;;;12.04;100.00;99125.47;2034179;29;20213;-69
2022/05/17 02:50:15;;;;;;;19.27;17.63;;;;;;;12.04;100.00;99126.25;2026698;29;20282;-69
2022/05/17 02:51:20;;;;;;;18.45;16.85;;;;;;;12.00;100.00;99116.50;2026688;29;20252;-69
2022/05/17 02:52:20;;;;;;;19.58;17.90;;;;;;;12.00;100.00;99125.31;2034186;29;20717;-69
2022/05/17 02:53:23;;;;;;;18.90;17.13;;;;;;;12.00;100.00;99127.19;2026661;29;20568;-69
2022/05/17 02:54:24;;;;;;;18.85;17.20;;;;;;;11.98;100.00;99124.78;2026932;29;20205;-69
2022/05/17 02:55:27;;;;;;;19.03;17.23;;;;;;;12.00;100.00;99122.63;2035303;29;20198;-69
2022/05/17 02:56:28;;;;;;;18.60;17.20;;;;;;;12.02;100.00;99119.66;2035184;29;20207;-69
2022/05/17 02:57:33;;;;;;;18.65;16.90;;;;;;;12.05;100.00;99124.38;2035123;29;20634;-69
2022/05/17 02:58:34;;;;;;;19.02;17.20;;;;;;;12.07;100.00;99120.31;2026609;29;20204;-68
2022/05/17 02:59:36;;;;;;;19.73;17.75;;;;;;;12.07;100.00;99125.66;2026943;29;20229;-69
2022/05/17 03:00:37;;;;;;;20.00;17.85;;;;;;;12.08;100.00;99127.25;2035077;29;20198;-69
2022/05/17 03:01:43;;;;;;;19.77;17.98;;;;;;;12.07;100.00;99122.97;2035055;29;20215;-69
2022/05/17 03:02:45;;;;;;;19.05;17.45;;;;;;;12.05;100.00;99122.50;2035002;29;20196;-69
2022/05/17 03:03:48;;;;;;;19.65;17.85;;;;;;;12.05;100.00;99129.72;2034328;29;20208;-69
2022/05/17 03:04:49;;;;;;;20.67;18.80;;;;;;;12.01;100.00;99124.22;2026499;29;20240;-68
2022/05/17 03:05:50;;;;;;;20.27;18.33;;;;;;;12.02;100.00;99133.03;2026683;29;20192;-69
2022/05/17 03:06:52;;;;;;;20.25;18.35;;;;;;;11.98;100.00;99127.47;2026244;29;20611;-69
2022/05/17 03:07:54;;;;;;;20.48;18.67;;;;;;;11.97;100.00;99133.91;2026746;29;20188;-69
2022/05/17 03:08:57;;;;;;;20.58;18.52;;;;;;;11.94;100.00;99126.50;2035231;29;20203;-69
2022/05/17 03:10:00;;;;;;;20.70;18.70;;;;;;;11.95;100.00;99135.31;2034990;29;20597;-69
2022/05/17 03:11:05;;;;;;;20.55;18.55;;;;;;;11.93;100.00;99137.50;2026525;29;20197;-70
2022/05/17 03:12:08;;;;;;;19.80;17.98;;;;;;;11.92;100.00;99134.03;2027056;29;20629;-69
2022/05/17 03:13:09;;;;;;;20.63;18.67;;;;;;;11.93;100.00;99129.50;2035167;29;20200;-69
2022/05/17 03:14:12;;;;;;;20.17;18.42;;;;;;;11.93;100.00;99124.13;2034965;29;20270;-69
2022/05/17 03:15:18;;;;;;;20.48;18.45;;;;;;;11.96;100.00;99131.53;2035038;29;20199;-69
2022/05/17 03:16:20;;;;;;;20.42;18.73;;;;;;;11.97;100.00;99131.25;2034326;29;20195;-69
2022/05/17 03:17:21;;;;;;;20.70;18.58;;;;;;;11.99;100.00;99138.94;2026033;29;20212;-69
2022/05/17 03:18:23;;;;;;;21.10;18.83;;;;;;;12.00;100.00;99127.97;2026592;29;20248;-69
2022/05/17 03:19:23;;;;;;;21.10;19.10;;;;;;;12.02;100.00;99130.34;2025909;29;20204;-69
2022/05/17 03:20:25;;;;;;;20.70;18.90;;;;;;;12.03;100.00;99134.59;2026607;29;20283;-70
2022/05/17 03:21:26;;;;;;;20.10;18.35;;;;;;;12.05;100.00;99135.06;2034542;29;20239;-70
2022/05/17 03:22:29;;;;;;;20.35;18.52;;;;;;;12.04;100.00;99125.47;2026432;29;20550;-69
2022/05/17 03:23:33;;;;;;;20.40;18.60;;;;;;;12.08;100.00;99135.28;2026878;29;20286;-69
2022/05/17 03:24:37;;;;;;;20.70;18.60;;;;;;;12.14;100.00;99133.25;2034904;29;20726;-69
2022/05/17 03:25:38;;;;;;;23.52;19.17;;;;;;;12.18;100.00;99128.88;2034906;29;20287;-70
2022/05/17 03:26:41;;;;;;;21.40;19.07;;;;;;;12.19;100.00;99127.78;2034859;29;20207;-69
2022/05/17 03:27:42;;;;;;;20.20;18.50;;;;;;;12.23;100.00;99133.31;2033838;29;20242;-69
2022/05/17 03:28:44;;;;;;;20.43;18.43;;;;;;;12.20;100.00;99137.41;2034163;29;20195;-69
2022/05/17 03:29:47;;;;;;;21.13;18.88;;;;;;;12.18;100.00;99128.09;2034821;29;20218;-69
2022/05/17 03:30:50;;;;;;;20.60;18.85;;;;;;;12.16;100.00;99131.88;2034838;29;20624;-70
2022/05/17 03:31:51;;;;;;;20.38;18.27;;;;;;;12.16;100.00;99131.06;2034825;29;20199;-70
2022/05/17 03:32:53;;;;;;;20.83;18.83;;;;;;;12.20;100.00;99134.72;2034830;29;20670;-69
2022/05/17 03:33:55;;;;;;;21.15;19.13;;;;;;;12.22;100.00;99134.41;2034786;29;20278;-69
2022/05/17 03:34:56;;;;;;;20.63;18.80;;;;;;;12.24;100.00;99138.34;2034672;29;20239;-69
2022/05/17 03:35:59;;;;;;;20.73;19.02;;;;;;;12.24;100.00;99134.88;2034222;29;20573;-71
2022/05/17 03:37:02;;;;;;;20.08;18.38;;;;;;;12.25;100.00;99137.28;2034828;29;20594;-69
2022/05/17 03:38:03;;;;;;;20.20;18.58;;;;;;;12.27;100.00;99137.75;2034721;29;20215;-69
2022/05/17 03:39:05;;;;;;;22.20;18.50;;;;;;;12.30;100.00;99139.03;2034779;29;20697;-70
2022/05/17 03:40:07;;;;;;;20.40;18.45;;;;;;;12.37;100.00;99136.72;2034805;29;20251;-69
2022/05/17 03:41:10;;;;;;;20.58;18.77;;;;;;;12.37;100.00;99132.16;2034776;29;20272;-70
2022/05/17 03:42:15;;;;;;;20.60;18.75;;;;;;;12.40;100.00;99136.88;2026270;29;20295;-69
2022/05/17 03:43:22;;;;;;;20.95;18.70;;;;;;;12.43;100.00;99140.84;2027270;29;20175;-69
2022/05/17 03:44:24;;;;;;;20.42;18.33;;;;;;;12.48;100.00;99137.25;2033733;29;20279;-69
2022/05/17 03:45:26;;;;;;;21.05;19.05;;;;;;;12.50;100.00;99146.53;2034403;29;20192;-69
2022/05/17 03:46:27;;;;;;;21.35;18.98;;;;;;;12.52;100.00;99149.72;2034734;29;20199;-70
2022/05/17 03:47:28;;;;;;;19.83;18.00;;;;;;;12.52;100.00;99149.72;2033993;29;20199;-69
2022/05/17 03:48:29;;;;;;;20.17;18.48;;;;;;;12.55;100.00;99145.63;2034330;29;20286;-69
2022/05/17 03:49:31;;;;;;;20.30;18.37;;;;;;;12.57;100.00;99141.56;2034703;29;20200;-69
2022/05/17 03:50:32;;;;;;;19.95;18.08;;;;;;;12.60;100.00;99146.31;2033947;29;20224;-69
2022/05/17 03:51:34;;;;;;;19.60;18.00;;;;;;;12.62;100.00;99146.00;2033840;29;20223;-69
2022/05/17 03:52:36;;;;;;;20.70;18.80;;;;;;;12.64;100.00;99143.78;2034035;29;20242;-69
2022/05/17 03:53:38;;;;;;;20.77;18.98;;;;;;;12.65;100.00;99148.84;2034041;29;20199;-70
2022/05/17 03:54:39;;;;;;;22.02;19.67;;;;;;;12.67;100.00;99151.19;2034189;29;20557;-70
2022/05/17 03:55:41;;;;;;;21.37;19.23;;;;;;;12.69;100.00;99146.34;2034660;29;20282;-70
2022/05/17 03:56:44;;;;;;;19.85;18.15;;;;;;;12.71;100.00;99147.63;2026154;29;20231;-69
2022/05/17 03:57:48;;;;;;;20.52;18.40;;;;;;;12.73;100.00;99153.44;2026366;29;20755;-69
2022/05/17 03:58:53;;;;;;;20.67;18.58;;;;;;;12.77;100.00;99155.50;2034639;29;20199;-70
2022/05/17 03:59:56;;;;;;;20.40;18.60;;;;;;;12.78;100.00;99157.09;2026184;29;20323;-69
2022/05/17 04:00:57;;;;;;;21.65;18.60;;;;;;;12.80;100.00;99157.59;2026721;29;20196;-69
2022/05/17 04:01:59;;;;;;;20.30;18.65;;;;;;;12.82;100.00;99158.84;2034040;29;20734;-74
2022/05/17 04:03:00;;;;;;;20.75;18.58;;;;;;;12.82;100.00;99153.50;2026033;29;20228;-73
2022/05/17 04:04:04;;;;;;;20.57;18.57;;;;;;;12.86;100.00;99161.72;2026177;29;20196;-74
2022/05/17 04:05:09;;;;;;;20.33;18.50;;;;;;;12.87;100.00;99161.41;2034147;29;20199;-73
2022/05/17 04:06:10;;;;;;;20.33;18.38;;;;;;;12.91;100.00;99162.34;2025553;29;20259;-74
2022/05/17 04:07:12;;;;;;;20.13;18.10;;;;;;;13.00;100.00;99163.19;2026325;29;20185;-71
2022/05/17 04:08:12;;;;;;;21.15;19.15;;;;;;;13.07;100.00;99167.31;2034625;29;20191;-71
2022/05/17 04:09:14;;;;;;;21.13;19.33;;;;;;;13.12;100.00;99169.81;2034632;29;20219;-71
2022/05/17 04:10:16;;;;;;;21.17;18.98;;;;;;;13.10;100.00;99172.03;2034540;29;20218;-74
2022/05/17 04:11:19;;;;;;;21.08;18.75;;;;;;;13.10;100.00;99169.34;2033889;29;20203;-72
2022/05/17 04:12:23;;;;;;;21.10;19.30;;;;;;;13.11;100.00;99168.25;2033944;29;20191;-75
2022/05/17 04:13:29;;;;;;;23.02;20.60;;;;;;;13.13;100.00;99164.19;2034527;29;20722;-71
2022/05/17 04:14:31;;;;;;;21.38;19.40;;;;;;;13.29;100.00;99164.56;2034762;29;20180;-71
2022/05/17 04:15:33;;;;;;;22.47;20.43;;;;;;;13.31;100.00;99167.75;2034588;29;20196;-71
2022/05/17 04:16:36;;;;;;;21.95;19.98;;;;;;;13.34;100.00;99163.63;2033859;29;20207;-71
2022/05/17 04:17:40;;;;;;;21.40;19.00;;;;;;;13.32;100.00;99179.25;2033935;29;20689;-71
2022/05/17 04:18:43;;;;;;;20.67;18.67;;;;;;;13.28;100.00;99176.38;2025983;29;20582;-71
2022/05/17 04:19:48;;;;;;;21.38;18.20;;;;;;;13.28;100.00;99179.06;2026515;29;20559;-71
2022/05/17 04:20:50;;;;;;;20.23;18.30;;;;;;;13.27;100.00;99180.94;2034483;29;20598;-71
2022/05/17 04:21:51;;;;;;;19.17;17.67;;;;;;;13.27;100.00;99180.16;2034149;29;20234;-71
2022/05/17 04:22:53;;;;;;;20.47;18.37;;;;;;;13.26;100.00;99170.56;2034507;29;20193;-71
2022/05/17 04:23:54;;;;;;;20.48;18.23;;;;;;;13.30;100.00;99174.19;2033780;29;20196;-71
2022/05/17 04:24:57;;;;;;;21.53;17.77;;;;;;;13.31;100.00;99175.00;2033770;29;20299;-71
2022/05/17 04:25:59;;;;;;;29.30;18.15;;;;;;;13.31;100.00;99170.41;2033885;29;20199;-71
2022/05/17 04:27:03;;;;;;;20.27;18.40;;;;;;;13.30;100.00;99174.19;2033754;29;20749;-71
2022/05/17 04:28:05;;;;;;;20.80;18.63;;;;;;;13.28;100.00;99177.16;2033864;29;20202;-71
2022/05/17 04:29:08;;;;;;;25.17;19.00;;;;;;;13.32;100.00;99166.63;2034302;29;20216;-71
2022/05/17 04:30:10;;;;;;;21.10;19.17;;;;;;;13.40;100.00;99181.94;2034408;29;20203;-72
2022/05/17 04:31:15;;;;;;;22.10;19.98;;;;;;;13.39;100.00;99176.91;2033884;29;20223;-71
2022/05/17 04:32:18;;;;;;;20.88;18.98;;;;;;;13.31;100.00;99166.94;2025846;29;20212;-72
2022/05/17 04:33:21;;;;;;;21.95;19.65;;;;;;;13.33;100.00;99160.16;2026388;29;20200;-72
2022/05/17 04:34:23;;;;;;;23.42;20.23;;;;;;;13.35;100.00;99165.22;2034101;29;20287;-72
2022/05/17 04:35:27;;;;;;;23.38;21.08;;;;;;;13.32;100.00;99158.59;2034420;29;20172;-72
2022/05/17 04:36:27;;;;;;;23.38;20.80;;;;;;;13.34;100.00;99155.59;2033981;29;20223;-72
2022/05/17 04:37:29;;;;;;;27.53;21.43;;;;;;;13.34;100.00;99151.03;2034565;29;20287;-72
2022/05/17 04:38:31;;;;;;;23.50;20.30;;;;;;;13.39;100.00;99155.47;2034226;29;20215;-72
2022/05/17 04:39:34;;;;;;;21.02;19.05;;;;;;;13.42;100.00;99154.84;2033192;29;20207;-72
2022/05/17 04:40:39;;;;;;;22.25;18.75;;;;;;;13.41;100.00;99162.09;2033759;29;20242;-72
2022/05/17 04:41:44;;;;;;;22.60;18.77;;;;;;;13.44;100.00;99161.44;2025810;29;20272;-74
2022/05/17 04:42:47;;;;;;;22.42;19.63;;;;;;;13.43;100.00;99159.88;2026386;29;20680;-75
2022/05/17 04:43:49;;;;;;;25.25;19.08;;;;;;;13.46;100.00;99161.94;2034304;29;20247;-75
2022/05/17 04:44:51;;;;;;;21.73;19.52;;;;;;;13.51;100.00;99172.50;2034537;29;20199;-75
2022/05/17 04:45:54;;;;;;;22.50;19.67;;;;;;;13.54;100.00;99171.88;2025823;29;20200;-72
2022/05/17 04:46:55;;;;;;;21.50;19.40;;;;;;;13.60;100.00;99174.41;2025994;29;20188;-73
2022/05/17 04:47:57;;;;;;;24.33;20.23;;;;;;;13.62;100.00;99182.94;2033292;29;20228;-72